Time;durP1;ratioP1;P1;durP2;ratioP2;P2;SDS_P1;SDS_P2;PMS_P1;PMS_P2;Temp;Humidity;BMP_temperature;BMP_pressure;BME280_temperature;BME280_humidity;BME280_pressure;Samples;Min_cycle;Max_cycle;Signal;HPM_P1;HPM_P2
2021/03/04 00:01:39;;;;;;;12.57;8.60;;;;;;;7.08;54.60;95838.22;5094656;28;20530;-80
2021/03/04 00:04:07;;;;;;;12.73;9.10;;;;;;;7.01;54.52;95836.88;5094623;28;20456;-80
2021/03/04 00:06:33;;;;;;;16.33;9.13;;;;;;;6.95;54.47;95836.41;5093871;28;20975;-80
2021/03/04 00:08:59;;;;;;;15.00;8.70;;;;;;;6.93;54.84;95833.00;5094274;28;20464;-80
2021/03/04 00:11:26;;;;;;;14.33;8.80;;;;;;;6.81;55.58;95817.09;5058805;28;20484;-80
2021/03/04 00:13:52;;;;;;;13.20;8.07;;;;;;;6.83;55.94;95825.69;5094574;28;20439;-80
2021/03/04 00:16:18;;;;;;;18.20;8.27;;;;;;;6.81;56.25;95827.53;5094510;28;20440;-80
2021/03/04 00:18:45;;;;;;;11.67;8.37;;;;;;;6.77;55.72;95822.59;5042917;28;20443;-79
2021/03/04 00:21:12;;;;;;;12.70;8.80;;;;;;;6.71;55.81;95813.34;5094739;28;20447;-80
2021/03/04 00:23:38;;;;;;;16.53;8.23;;;;;;;6.79;55.79;95818.97;5094808;28;20440;-80
2021/03/04 00:26:05;;;;;;;15.30;8.73;;;;;;;6.69;56.25;95817.78;5094904;28;21088;-79
2021/03/04 00:28:31;;;;;;;11.60;8.47;;;;;;;6.77;55.98;95819.97;5095236;28;20455;-80
2021/03/04 00:30:57;;;;;;;11.60;8.17;;;;;;;6.78;55.89;95814.66;5094711;28;20491;-81
2021/03/04 00:33:24;;;;;;;15.80;9.03;;;;;;;6.72;56.21;95812.41;5094610;28;20431;-81
2021/03/04 00:35:50;;;;;;;13.50;9.20;;;;;;;6.70;55.73;95810.81;5094837;28;20800;-80
2021/03/04 00:38:18;;;;;;;13.80;8.60;;;;;;;6.67;56.45;95808.38;5094245;28;20799;-80
2021/03/04 00:40:44;;;;;;;16.37;7.60;;;;;;;6.65;56.39;95802.38;5094406;28;20773;-80
2021/03/04 00:43:11;;;;;;;14.10;8.70;;;;;;;6.64;55.96;95800.69;5058593;28;21154;-80
2021/03/04 00:45:38;;;;;;;12.23;8.10;;;;;;;6.65;56.46;95795.41;5094303;28;20454;-80
2021/03/04 00:48:05;;;;;;;11.13;7.57;;;;;;;6.70;56.53;95797.78;5094373;28;20438;-80
2021/03/04 00:50:31;;;;;;;13.23;8.13;;;;;;;6.70;56.00;95789.94;5094125;28;20520;-80
2021/03/04 00:52:58;;;;;;;10.70;7.77;;;;;;;6.69;55.73;95794.31;5093982;28;20493;-80
2021/03/04 00:55:25;;;;;;;13.50;8.10;;;;;;;6.72;56.26;95790.69;5094058;28;20451;-80
2021/03/04 00:57:51;;;;;;;9.93;7.27;;;;;;;6.78;56.58;95791.19;5094030;28;20919;-80
2021/03/04 01:00:18;;;;;;;12.53;8.63;;;;;;;6.77;55.75;95786.91;5094028;28;20454;-80
2021/03/04 01:02:44;;;;;;;22.23;8.23;;;;;;;6.76;56.40;95782.63;5075353;28;20440;-80
2021/03/04 01:05:12;;;;;;;11.43;7.93;;;;;;;6.73;56.64;95774.97;5094012;28;20439;-80
2021/03/04 01:07:38;;;;;;;15.07;7.73;;;;;;;6.73;55.81;95771.53;5094170;28;20791;-80
2021/03/04 01:10:07;;;;;;;9.87;7.90;;;;;;;6.67;56.24;95767.50;5093898;28;20826;-80
2021/03/04 01:12:34;;;;;;;10.23;7.87;;;;;;;6.68;55.57;95770.94;5093453;28;20463;-80
2021/03/04 01:15:01;;;;;;;12.23;8.20;;;;;;;6.60;56.21;95765.28;5093679;28;20473;-80
2021/03/04 01:17:27;;;;;;;14.33;8.50;;;;;;;6.59;56.25;95764.44;5093953;28;20443;-80
2021/03/04 01:19:53;;;;;;;12.53;8.87;;;;;;;6.53;56.27;95764.78;5093605;28;20456;-80
2021/03/04 01:22:20;;;;;;;12.87;7.23;;;;;;;6.51;56.78;95762.25;5093638;28;20584;-80
2021/03/04 01:24:46;;;;;;;11.73;8.10;;;;;;;6.35;56.69;95750.13;5093829;28;20895;-80
2021/03/04 01:27:12;;;;;;;13.30;7.57;;;;;;;6.37;57.54;95750.94;5093381;28;20427;-80
2021/03/04 01:29:40;;;;;;;17.87;7.60;;;;;;;6.32;56.96;95753.75;5041361;28;20477;-80
2021/03/04 01:32:07;;;;;;;14.53;7.93;;;;;;;6.28;57.23;95747.03;5093419;28;20525;-80
2021/03/04 01:34:33;;;;;;;13.23;8.10;;;;;;;6.17;57.74;95746.78;5093918;28;20440;-80
2021/03/04 01:37:00;;;;;;;9.07;6.47;;;;;;;6.14;58.12;95733.91;5093359;28;20482;-80
2021/03/04 01:39:26;;;;;;;8.97;7.23;;;;;;;6.10;58.17;95741.06;5093439;28;20455;-80
2021/03/04 01:41:52;;;;;;;13.33;7.40;;;;;;;6.08;57.50;95729.88;5058089;28;20439;-80
2021/03/04 01:44:19;;;;;;;10.63;6.83;;;;;;;6.00;58.31;95731.19;5093885;28;20428;-80
2021/03/04 01:46:46;;;;;;;9.27;6.87;;;;;;;5.95;58.28;95731.44;5093650;28;20440;-80
2021/03/04 01:49:13;;;;;;;9.83;7.40;;;;;;;5.92;58.13;95725.56;5094072;28;20447;-80
2021/03/04 01:51:39;;;;;;;7.83;5.77;;;;;;;5.94;57.80;95727.16;5093911;28;20528;-80
2021/03/04 01:54:06;;;;;;;10.40;6.40;;;;;;;5.86;58.56;95711.06;5093316;28;20440;-80
2021/03/04 01:56:34;;;;;;;11.77;7.30;;;;;;;5.86;58.98;95716.28;5093666;28;20435;-81
2021/03/04 01:59:00;;;;;;;10.37;7.20;;;;;;;5.88;58.50;95711.84;5093570;28;20448;-80
2021/03/04 02:01:26;;;;;;;12.97;6.73;;;;;;;5.90;58.34;95712.63;5095905;28;20481;-80
2021/03/04 02:03:54;;;;;;;15.03;9.07;;;;;;;5.85;59.10;95712.00;5097234;28;20846;-80
2021/03/04 02:06:27;;;;;;;11.77;8.13;;;;;;;5.83;59.32;95711.25;5097267;28;20432;-80
2021/03/04 02:09:00;;;;;;;9.13;7.00;;;;;;;5.85;59.45;95709.41;5097230;28;20772;-80
2021/03/04 02:11:32;;;;;;;13.33;7.63;;;;;;;5.95;58.55;95713.22;5096847;28;20487;-80
2021/03/04 02:14:07;;;;;;;11.23;8.30;;;;;;;6.00;58.87;95711.19;5097169;28;20792;-80
2021/03/04 02:16:38;;;;;;;14.07;10.87;;;;;;;6.06;58.29;95708.25;5096864;28;20433;-80
2021/03/04 02:19:10;;;;;;;12.90;8.67;;;;;;;6.08;58.38;95716.03;5097117;28;20428;-80
2021/03/04 02:21:45;;;;;;;18.13;10.47;;;;;;;6.11;58.00;95711.47;5097391;28;20493;-80
2021/03/04 02:24:47;;;;;;;17.00;11.03;;;;;;;6.09;58.41;95713.31;5097150;28;20445;-80
2021/03/04 02:27:16;;;;;;;19.47;13.77;;;;;;;5.99;58.87;95712.13;5096711;28;20434;-81
2021/03/04 02:29:45;;;;;;;24.47;12.87;;;;;;;5.89;59.74;95714.38;5096982;28;20479;-80
2021/03/04 02:32:12;;;;;;;28.57;16.03;;;;;;;5.81;60.57;95718.28;5096470;28;20486;-80
2021/03/04 02:34:45;;;;;;;48.90;23.50;;;;;;;5.59;61.11;95709.00;5096642;28;20428;-80
2021/03/04 02:37:13;;;;;;;32.70;18.40;;;;;;;5.59;60.87;95708.16;5096684;28;20479;-80
2021/03/04 02:39:42;;;;;;;23.87;13.80;;;;;;;5.67;60.37;95712.94;5044440;28;20442;-80
2021/03/04 02:42:08;;;;;;;23.63;13.80;;;;;;;5.67;60.09;95708.59;5096834;28;20446;-80
2021/03/04 02:44:36;;;;;;;18.13;12.63;;;;;;;5.71;60.35;95707.50;5096224;28;20780;-80
2021/03/04 02:47:03;;;;;;;19.43;13.67;;;;;;;5.75;60.30;95710.78;5096715;28;20447;-80
2021/03/04 02:49:30;;;;;;;36.57;14.67;;;;;;;5.73;59.94;95712.63;5096551;28;20805;-80
2021/03/04 02:51:57;;;;;;;21.97;14.90;;;;;;;5.74;60.83;95714.31;5096197;28;20485;-80
2021/03/04 02:54:23;;;;;;;18.70;13.67;;;;;;;5.77;59.84;95716.75;5096812;28;20787;-80
2021/03/04 02:56:50;;;;;;;21.73;13.47;;;;;;;5.79;59.78;95709.72;5096132;28;20446;-80
2021/03/04 02:59:18;;;;;;;23.63;12.87;;;;;;;5.82;59.96;95706.97;5096257;28;20927;-80
2021/03/04 03:01:45;;;;;;;21.90;13.03;;;;;;;5.82;59.84;95714.78;5096083;28;20477;-80
2021/03/04 03:04:13;;;;;;;26.63;15.70;;;;;;;5.82;60.25;95717.38;5096074;28;20444;-80
2021/03/04 03:06:41;;;;;;;30.20;16.13;;;;;;;5.81;59.48;95710.47;5095850;28;20908;-80
2021/03/04 03:09:08;;;;;;;25.37;13.43;;;;;;;5.79;59.40;95720.97;5096863;28;20457;-80
2021/03/04 03:11:37;;;;;;;18.07;11.87;;;;;;;5.74;59.15;95716.91;5060003;28;20479;-80
2021/03/04 03:14:03;;;;;;;24.50;12.03;;;;;;;5.70;59.25;95707.59;5095858;28;20447;-80
2021/03/04 03:16:30;;;;;;;18.87;10.77;;;;;;;5.69;59.57;95714.56;5095727;28;20435;-80
2021/03/04 03:18:57;;;;;;;11.30;9.00;;;;;;;5.69;60.19;95716.31;5096332;28;20450;-80
2021/03/04 03:21:24;;;;;;;17.20;10.00;;;;;;;5.65;60.05;95717.41;5095754;28;20438;-80
2021/03/04 03:23:50;;;;;;;13.17;9.30;;;;;;;5.60;59.43;95712.44;5095826;28;20432;-80
2021/03/04 03:26:16;;;;;;;13.70;8.20;;;;;;;5.58;59.99;95712.53;5095365;28;20950;-80
2021/03/04 03:28:43;;;;;;;20.17;9.60;;;;;;;5.50;60.13;95704.28;5095311;28;20462;-80
2021/03/04 03:31:10;;;;;;;12.20;8.30;;;;;;;5.39;60.82;95706.56;5096039;28;20494;-80
2021/03/04 03:33:36;;;;;;;13.77;8.43;;;;;;;5.37;61.20;95704.97;5060542;28;20448;-80
2021/03/04 03:36:08;;;;;;;15.40;8.33;;;;;;;5.29;61.04;95708.81;5095775;28;20439;-80
2021/03/04 03:38:36;;;;;;;11.90;7.63;;;;;;;5.26;61.35;95702.94;5095688;28;20822;-80
2021/03/04 03:41:03;;;;;;;13.73;7.93;;;;;;;5.27;60.66;95704.63;5095739;28;20447;-80
2021/03/04 03:43:32;;;;;;;12.03;7.70;;;;;;;5.23;61.12;95701.34;5095875;28;20427;-80
2021/03/04 03:45:59;;;;;;;12.20;7.70;;;;;;;5.17;61.10;95699.00;5095435;28;20930;-80
2021/03/04 03:48:28;;;;;;;10.07;7.63;;;;;;;5.14;61.62;95695.72;5095482;28;20435;-80
2021/03/04 03:50:56;;;;;;;12.40;8.20;;;;;;;5.18;61.82;95692.88;5095189;28;21056;-81
2021/03/04 03:53:26;;;;;;;10.10;6.67;;;;;;;5.16;60.99;95686.94;5094738;28;20432;-80
2021/03/04 03:55:54;;;;;;;14.23;7.30;;;;;;;5.15;61.72;95695.66;5095321;28;20442;-80
2021/03/04 03:58:22;;;;;;;11.20;8.20;;;;;;;5.08;62.21;95689.09;5095166;28;20469;-80
2021/03/04 04:00:49;;;;;;;13.27;9.37;;;;;;;5.01;62.18;95689.47;5095062;28;20439;-80
2021/03/04 04:03:16;;;;;;;12.63;7.60;;;;;;;5.00;61.31;95682.59;5094917;28;20443;-80
2021/03/04 04:05:43;;;;;;;17.00;8.30;;;;;;;4.80;62.49;95687.03;5059644;28;20460;-80
2021/03/04 04:08:09;;;;;;;10.30;9.00;;;;;;;4.81;62.12;95686.09;5094764;28;20427;-80
2021/03/04 04:10:38;;;;;;;21.33;9.40;;;;;;;4.68;61.71;95687.63;5094220;28;20442;-80
2021/03/04 04:13:04;;;;;;;15.53;10.33;;;;;;;4.54;62.52;95682.25;5094716;28;20436;-80
2021/03/04 04:15:31;;;;;;;20.23;9.10;;;;;;;4.50;62.91;95689.34;5095131;28;20432;-80
2021/03/04 04:18:00;;;;;;;13.67;8.87;;;;;;;4.50;63.11;95689.34;5094734;28;20500;-80
2021/03/04 04:20:27;;;;;;;11.27;9.07;;;;;;;4.49;63.60;95682.47;5095047;28;20431;-80
2021/03/04 04:22:55;;;;;;;19.10;10.40;;;;;;;4.52;63.72;95686.69;5094880;28;20453;-80
2021/03/04 04:25:23;;;;;;;25.30;15.50;;;;;;;4.55;63.99;95681.34;5095214;28;20542;-80
2021/03/04 04:27:51;;;;;;;23.83;15.37;;;;;;;4.52;63.19;95679.72;5094767;28;20432;-80
2021/03/04 04:30:19;;;;;;;20.17;14.50;;;;;;;4.60;63.08;95677.59;5094615;28;20472;-80
2021/03/04 04:32:46;;;;;;;21.27;15.33;;;;;;;4.57;63.76;95674.31;5094342;28;20483;-80
2021/03/04 04:35:13;;;;;;;25.70;15.63;;;;;;;4.58;63.13;95674.22;5093945;28;20485;-80
2021/03/04 04:37:40;;;;;;;37.20;16.07;;;;;;;4.58;63.32;95668.19;5094126;28;20439;-80
2021/03/04 04:40:09;;;;;;;25.80;13.80;;;;;;;4.59;63.05;95675.91;5094467;28;20443;-80
2021/03/04 04:42:35;;;;;;;21.30;13.97;;;;;;;4.63;63.14;95676.63;5094255;28;20451;-80
2021/03/04 04:45:06;;;;;;;20.37;13.90;;;;;;;4.60;62.95;95672.38;5094306;28;20455;-80
2021/03/04 04:47:33;;;;;;;23.23;13.33;;;;;;;4.63;62.93;95669.66;5094142;28;20511;-80
2021/03/04 04:49:59;;;;;;;20.80;13.47;;;;;;;4.57;64.00;95663.91;5094050;28;20443;-80
2021/03/04 04:52:26;;;;;;;23.63;14.23;;;;;;;4.55;63.67;95663.13;5094374;28;20467;-80
2021/03/04 04:54:52;;;;;;;18.43;13.03;;;;;;;4.51;64.10;95659.00;5094631;28;20431;-80
2021/03/04 04:57:19;;;;;;;19.40;11.80;;;;;;;4.49;63.48;95655.66;5093893;28;20439;-80
2021/03/04 04:59:45;;;;;;;20.00;11.63;;;;;;;4.46;64.11;95653.19;5094059;28;20562;-80
2021/03/04 05:02:13;;;;;;;28.23;12.63;;;;;;;4.47;64.59;95653.13;5094208;28;20458;-80
2021/03/04 05:04:39;;;;;;;44.30;16.50;;;;;;;4.48;63.87;95659.16;5093961;28;20467;-80
2021/03/04 05:07:05;;;;;;;25.80;14.43;;;;;;;4.45;64.40;95651.53;5058367;28;21008;-80
2021/03/04 05:09:32;;;;;;;31.80;15.53;;;;;;;4.42;63.97;95644.72;5093547;28;20492;-81
2021/03/04 05:11:58;;;;;;;35.03;17.60;;;;;;;4.43;64.79;95653.34;5093447;28;20475;-81
2021/03/04 05:14:25;;;;;;;31.73;17.43;;;;;;;4.49;64.75;95646.09;5093461;28;20442;-81
2021/03/04 05:16:51;;;;;;;28.83;16.93;;;;;;;4.51;64.18;95644.25;5093498;28;20951;-81
2021/03/04 05:19:18;;;;;;;30.03;16.77;;;;;;;4.50;64.34;95642.59;5093346;28;20535;-81
2021/03/04 05:21:45;;;;;;;32.50;18.27;;;;;;;4.55;64.35;95642.34;5093616;28;20480;-81
2021/03/04 05:24:12;;;;;;;38.63;21.83;;;;;;;4.60;64.02;95640.34;5093764;28;20443;-80
2021/03/04 05:26:38;;;;;;;35.37;17.70;;;;;;;4.66;64.33;95637.47;5093870;28;20450;-81
2021/03/04 05:29:05;;;;;;;50.17;25.40;;;;;;;4.70;64.75;95633.81;5094130;28;20470;-81
2021/03/04 05:31:31;;;;;;;53.10;22.50;;;;;;;4.90;64.04;95636.22;5094024;28;20498;-81
2021/03/04 05:33:58;;;;;;;30.90;18.37;;;;;;;5.81;64.63;95630.59;5093194;28;20629;-80
2021/03/04 05:36:25;;;;;;;43.03;18.13;;;;;;;7.07;59.33;95622.56;5096006;28;20450;-80
2021/03/04 05:38:51;;;;;;;35.57;17.20;;;;;;;8.43;54.50;95618.53;5097505;28;20451;-80
2021/03/04 05:41:21;;;;;;;41.40;21.20;;;;;;;9.60;51.28;95621.09;5097468;28;20447;-80
2021/03/04 05:43:48;;;;;;;41.20;20.10;;;;;;;10.61;48.18;95617.38;5097645;28;20438;-81
2021/03/04 05:46:15;;;;;;;37.00;18.33;;;;;;;11.52;45.32;95622.75;5097323;28;20446;-80
2021/03/04 05:48:44;;;;;;;30.43;16.57;;;;;;;12.29;43.17;95610.56;5097337;28;20446;-81
2021/03/04 05:51:14;;;;;;;26.43;15.37;;;;;;;12.63;42.18;95608.69;5097058;28;20982;-81
2021/03/04 05:53:47;;;;;;;31.27;18.10;;;;;;;12.99;40.05;95604.81;5045876;28;20444;-81
2021/03/04 05:56:15;;;;;;;31.60;20.60;;;;;;;13.17;39.64;95605.13;5097382;28;20447;-80
2021/03/04 05:58:43;;;;;;;35.03;21.10;;;;;;;13.01;39.09;95605.56;5097808;28;20476;-80
2021/03/04 06:01:10;;;;;;;28.83;19.47;;;;;;;12.86;40.21;95604.19;5096712;28;20451;-80
2021/03/04 06:03:37;;;;;;;31.37;19.47;;;;;;;12.48;40.12;95615.22;5044583;28;20436;-80
2021/03/04 06:06:04;;;;;;;27.60;17.30;;;;;;;12.19;41.02;95617.53;5096412;28;20499;-80
2021/03/04 06:08:31;;;;;;;27.30;17.73;;;;;;;12.14;41.37;95627.56;5061555;28;20440;-80
2021/03/04 06:10:58;;;;;;;25.07;16.93;;;;;;;11.96;41.18;95619.34;5096995;28;20492;-80
2021/03/04 06:13:24;;;;;;;33.23;16.70;;;;;;;11.94;42.25;95625.69;5097048;28;20451;-80
2021/03/04 06:15:52;;;;;;;27.77;16.03;;;;;;;11.75;42.27;95616.56;5097404;28;20455;-80
2021/03/04 06:18:19;;;;;;;30.03;15.20;;;;;;;11.88;42.94;95620.91;5097494;28;20501;-80
2021/03/04 06:20:45;;;;;;;24.53;15.53;;;;;;;11.62;43.01;95615.84;5096583;28;20434;-80
2021/03/04 06:23:12;;;;;;;27.93;17.40;;;;;;;11.35;43.61;95621.44;5096724;28;20444;-80
2021/03/04 06:25:39;;;;;;;28.70;17.53;;;;;;;11.21;44.21;95615.53;5096698;28;20813;-80
2021/03/04 06:28:07;;;;;;;35.00;19.60;;;;;;;11.02;44.43;95611.69;5096487;28;20535;-80
2021/03/04 06:30:34;;;;;;;45.97;19.63;;;;;;;11.16;45.05;95608.84;5096528;28;20478;-80
2021/03/04 06:33:03;;;;;;;50.60;19.63;;;;;;;11.25;44.70;95601.22;5096775;28;20481;-80
2021/03/04 06:35:31;;;;;;;31.00;19.53;;;;;;;11.04;44.32;95608.94;5096762;28;20968;-80
2021/03/04 06:37:58;;;;;;;42.50;21.67;;;;;;;10.93;45.08;95606.28;5097364;28;20526;-80
2021/03/04 06:40:26;;;;;;;41.80;21.63;;;;;;;10.96;44.76;95606.88;5096762;28;20817;-80
2021/03/04 06:42:52;;;;;;;57.03;25.43;;;;;;;11.17;44.83;95607.91;5096815;28;20923;-80
2021/03/04 06:45:25;;;;;;;63.50;30.30;;;;;;;10.78;45.05;95618.75;5096720;28;20446;-80
2021/03/04 06:47:52;;;;;;;52.40;28.17;;;;;;;11.11;45.07;95618.88;5096479;28;20446;-81
2021/03/04 06:50:22;;;;;;;52.83;27.10;;;;;;;11.35;44.59;95602.22;5096512;28;20446;-80
2021/03/04 06:52:49;;;;;;;37.63;23.70;;;;;;;11.56;43.86;95610.22;5096787;28;20971;-81
2021/03/04 06:55:16;;;;;;;31.20;19.87;;;;;;;11.65;44.48;95615.63;5096278;28;20511;-80
2021/03/04 06:57:57;;;;;;;31.57;19.20;;;;;;;11.77;44.14;95611.19;5096570;28;20434;-80
2021/03/04 07:00:24;;;;;;;32.40;20.30;;;;;;;11.70;43.99;95605.56;5096237;28;20430;-80
2021/03/04 07:02:54;;;;;;;25.90;18.60;;;;;;;11.76;43.40;95602.47;5096400;28;20449;-80
2021/03/04 07:05:22;;;;;;;28.67;17.00;;;;;;;11.96;44.09;95597.47;5096742;28;20439;-80
2021/03/04 07:07:52;;;;;;;26.57;16.90;;;;;;;12.09;43.41;95598.16;5095879;28;20444;-80
2021/03/04 07:10:19;;;;;;;32.57;18.37;;;;;;;12.18;42.58;95597.44;5096246;28;20817;-81
2021/03/04 07:12:47;;;;;;;31.00;18.17;;;;;;;12.29;42.55;95592.16;5095505;28;20487;-81
2021/03/04 07:15:14;;;;;;;28.07;19.40;;;;;;;12.17;42.80;95584.41;5095860;28;20442;-81
2021/03/04 07:17:43;;;;;;;29.37;18.03;;;;;;;12.12;42.76;95586.56;5043790;28;20457;-81
2021/03/04 07:20:14;;;;;;;28.00;17.63;;;;;;;12.02;43.05;95581.19;5095838;28;20436;-81
2021/03/04 07:22:45;;;;;;;35.37;17.13;;;;;;;11.57;44.21;95575.97;5096036;28;20448;-81
2021/03/04 07:25:12;;;;;;;37.93;18.17;;;;;;;11.81;44.37;95580.25;5096608;28;20444;-81
2021/03/04 07:27:39;;;;;;;26.60;18.50;;;;;;;12.08;43.87;95576.28;5095749;28;20432;-81
2021/03/04 07:30:07;;;;;;;27.40;18.80;;;;;;;12.32;43.00;95573.47;5096070;28;20479;-81
2021/03/04 07:32:35;;;;;;;32.20;19.23;;;;;;;12.14;43.03;95564.44;5095862;28;20490;-81
2021/03/04 07:35:03;;;;;;;28.77;19.40;;;;;;;12.07;43.41;95563.25;5096338;28;20451;-81
2021/03/04 07:37:30;;;;;;;26.47;18.03;;;;;;;12.09;43.93;95559.53;5096005;28;20439;-81
2021/03/04 07:40:00;;;;;;;36.70;18.87;;;;;;;11.90;44.49;95556.72;5096188;28;20416;-81
2021/03/04 07:42:27;;;;;;;26.93;17.70;;;;;;;12.01;43.67;95547.97;5095663;28;20751;-81
2021/03/04 07:44:54;;;;;;;33.63;18.40;;;;;;;12.21;44.32;95549.84;5060448;28;20453;-81
2021/03/04 07:47:27;;;;;;;32.13;18.00;;;;;;;12.48;43.29;95552.03;5095217;28;20444;-81
2021/03/04 07:49:55;;;;;;;31.53;17.13;;;;;;;12.49;42.76;95542.34;5095278;28;20447;-81
2021/03/04 07:52:23;;;;;;;26.17;18.27;;;;;;;12.59;41.89;95543.25;5094997;28;20483;-81
2021/03/04 07:54:51;;;;;;;36.00;19.10;;;;;;;12.82;42.59;95536.09;5043603;28;20439;-81
2021/03/04 07:57:19;;;;;;;29.50;17.20;;;;;;;12.63;43.04;95534.13;5095004;28;20937;-81
2021/03/04 07:59:53;;;;;;;31.90;19.03;;;;;;;12.76;43.10;95537.44;5094717;28;20440;-81
2021/03/04 08:02:25;;;;;;;29.07;16.90;;;;;;;12.65;43.18;95533.03;5095400;28;20538;-81
2021/03/04 08:04:51;;;;;;;25.53;17.53;;;;;;;12.90;42.89;95520.47;5095362;28;20464;-81
2021/03/04 08:07:26;;;;;;;30.27;17.00;;;;;;;13.10;41.63;95521.44;5094600;28;20436;-81
2021/03/04 08:10:04;;;;;;;31.87;19.07;;;;;;;13.08;41.99;95513.66;5094689;28;20926;-81
2021/03/04 08:12:30;;;;;;;27.13;18.27;;;;;;;12.97;41.45;95511.06;5095049;28;20474;-81
2021/03/04 08:14:58;;;;;;;28.53;18.13;;;;;;;12.99;42.98;95514.41;5094944;28;20431;-81
2021/03/04 08:17:35;;;;;;;27.40;16.53;;;;;;;13.01;41.99;95517.78;5094578;28;20443;-81
2021/03/04 08:20:07;;;;;;;34.70;19.50;;;;;;;13.04;41.49;95509.63;5094431;28;20439;-81
2021/03/04 08:22:43;;;;;;;32.03;18.70;;;;;;;13.13;42.10;95511.47;5094409;28;20825;-81
2021/03/04 08:25:11;;;;;;;25.93;16.03;;;;;;;13.16;41.74;95503.28;5094695;28;20433;-81
2021/03/04 08:27:39;;;;;;;25.15;16.02;;;;;;;13.03;41.59;95508.78;5094369;28;20447;-81
2021/03/04 08:30:07;;;;;;;30.43;17.50;;;;;;;12.93;42.11;95497.31;5094535;28;20520;-81
2021/03/04 08:32:34;;;;;;;26.43;16.50;;;;;;;13.05;42.27;95497.28;5094685;28;20485;-81
2021/03/04 08:35:00;;;;;;;26.23;17.43;;;;;;;13.21;42.10;95487.09;5094405;28;20445;-81
2021/03/04 08:37:28;;;;;;;26.97;15.73;;;;;;;13.05;41.89;95490.22;5094344;28;20446;-81
2021/03/04 08:40:00;;;;;;;22.83;15.90;;;;;;;13.16;41.45;95479.56;5094534;28;20464;-80
2021/03/04 08:42:27;;;;;;;22.03;15.63;;;;;;;13.29;40.97;95488.13;5094468;28;20837;-80
2021/03/04 08:44:53;;;;;;;29.07;16.40;;;;;;;13.27;40.96;95478.66;5094314;28;20440;-80
2021/03/04 08:47:20;;;;;;;23.73;15.67;;;;;;;13.49;41.02;95486.41;5058940;28;20450;-80
2021/03/04 08:49:51;;;;;;;31.77;18.80;;;;;;;13.62;40.11;95475.63;5094879;28;20436;-80
2021/03/04 08:52:22;;;;;;;28.90;18.50;;;;;;;13.80;40.56;95473.16;5094662;28;20513;-81
2021/03/04 08:54:49;;;;;;;31.73;17.50;;;;;;;13.92;40.34;95472.09;5094630;28;20428;-82
2021/03/04 08:57:26;;;;;;;26.10;16.07;;;;;;;14.13;39.24;95462.25;5094708;28;20439;-82
2021/03/04 09:00:12;;;;;;;26.47;15.23;;;;;;;14.05;39.07;95469.19;5094327;28;20912;-80
2021/03/04 09:02:39;;;;;;;22.63;15.23;;;;;;;14.02;39.47;95459.75;5093925;28;20476;-81
2021/03/04 09:05:07;;;;;;;25.67;14.60;;;;;;;14.04;39.18;95452.53;5094000;28;20443;-81
2021/03/04 09:07:40;;;;;;;33.80;15.30;;;;;;;13.95;39.70;95456.00;5094227;28;20434;-81
2021/03/04 09:10:08;;;;;;;25.43;16.40;;;;;;;14.01;39.80;95442.25;5093947;28;20438;-81
2021/03/04 09:12:42;;;;;;;24.10;15.80;;;;;;;13.84;41.26;95442.91;5094476;28;20542;-80
2021/03/04 09:15:09;;;;;;;27.93;17.20;;;;;;;13.84;41.28;95438.47;5094472;28;20470;-80
2021/03/04 09:17:39;;;;;;;22.33;14.93;;;;;;;13.89;40.66;95431.00;5094126;28;20445;-81
2021/03/04 09:20:07;;;;;;;24.10;16.40;;;;;;;14.06;40.22;95440.03;5093801;28;20439;-80
2021/03/04 09:22:35;;;;;;;27.43;17.70;;;;;;;14.09;40.57;95431.84;5093279;28;20426;-79
2021/03/04 09:25:02;;;;;;;23.67;16.10;;;;;;;14.11;40.76;95421.97;5093345;28;20520;-80
2021/03/04 09:27:28;;;;;;;31.40;16.33;;;;;;;14.07;40.38;95428.50;5093440;28;20471;-80
2021/03/04 09:29:56;;;;;;;29.83;16.50;;;;;;;13.92;40.40;95419.34;5093685;28;20490;-80
2021/03/04 09:32:31;;;;;;;29.57;14.30;;;;;;;13.91;40.51;95409.75;5092983;28;20484;-79
2021/03/04 09:34:57;;;;;;;31.10;14.30;;;;;;;14.07;40.58;95406.56;5093778;28;20448;-80
2021/03/04 09:37:25;;;;;;;27.50;15.40;;;;;;;14.04;40.17;95402.38;5093214;28;20457;-80
2021/03/04 09:39:55;;;;;;;23.77;15.80;;;;;;;14.10;39.92;95395.72;5093059;28;21411;-80
2021/03/04 09:42:32;;;;;;;36.37;15.23;;;;;;;14.04;40.54;95391.00;5093566;28;20190;-80
2021/03/04 09:45:02;;;;;;;27.33;16.60;;;;;;;14.08;40.32;95395.03;5093317;28;21520;-80
2021/03/04 09:47:30;;;;;;;25.63;15.80;;;;;;;14.02;39.85;95385.88;5094191;28;20869;-81
2021/03/04 09:49:58;;;;;;;23.07;13.20;;;;;;;13.40;40.13;95397.56;5094036;28;20432;-80
2021/03/04 09:52:25;;;;;;;24.17;14.80;;;;;;;13.36;41.21;95390.91;5093762;28;20573;-80
2021/03/04 09:55:05;;;;;;;18.07;13.03;;;;;;;13.53;40.70;95376.22;5093486;28;20429;-81
2021/03/04 09:57:32;;;;;;;26.97;15.40;;;;;;;13.73;41.07;95371.81;5093549;28;20445;-80
2021/03/04 09:59:59;;;;;;;18.67;13.73;;;;;;;13.95;39.98;95367.13;5093605;28;20440;-81
2021/03/04 10:02:37;;;;;;;19.30;13.33;;;;;;;14.15;40.33;95369.72;5093187;28;20461;-81
2021/03/04 10:05:04;;;;;;;21.87;12.47;;;;;;;14.37;39.50;95368.59;5093491;28;20432;-81
2021/03/04 10:07:32;;;;;;;21.03;13.73;;;;;;;14.27;39.10;95358.91;5092852;28;20436;-81
2021/03/04 10:09:58;;;;;;;27.60;12.87;;;;;;;14.04;39.01;95349.63;5092224;28;20475;-80
2021/03/04 10:12:25;;;;;;;22.83;13.20;;;;;;;14.11;39.51;95342.78;5040253;28;20490;-81
2021/03/04 10:14:54;;;;;;;22.53;13.00;;;;;;;14.03;39.42;95345.31;5039887;28;20504;-81
2021/03/04 10:17:21;;;;;;;20.63;14.20;;;;;;;13.95;39.72;95346.00;5091881;28;20446;-81
2021/03/04 10:19:49;;;;;;;19.63;14.47;;;;;;;14.03;39.21;95334.75;5092783;28;20464;-81
2021/03/04 10:22:15;;;;;;;25.03;13.37;;;;;;;14.10;39.29;95321.81;5093998;28;20446;-81
2021/03/04 10:24:42;;;;;;;23.53;12.37;;;;;;;14.17;39.21;95323.78;5095751;28;20434;-81
2021/03/04 10:27:08;;;;;;;21.93;12.90;;;;;;;14.17;39.07;95320.31;5095954;28;20445;-81
2021/03/04 10:29:37;;;;;;;31.77;14.20;;;;;;;14.28;38.81;95314.84;5095880;28;20451;-81
2021/03/04 10:32:04;;;;;;;20.57;13.70;;;;;;;14.18;38.90;95306.97;5096231;28;20575;-81
2021/03/04 10:34:30;;;;;;;27.20;14.30;;;;;;;14.20;39.88;95310.28;5095600;28;20446;-81
2021/03/04 10:36:58;;;;;;;21.23;13.53;;;;;;;14.25;39.18;95296.66;5096320;28;20441;-81
2021/03/04 10:39:24;;;;;;;18.73;12.50;;;;;;;14.32;39.03;95291.66;5095859;28;20461;-81
2021/03/04 10:41:50;;;;;;;21.37;12.37;;;;;;;14.30;38.44;95283.03;5095813;28;20530;-81
2021/03/04 10:44:17;;;;;;;26.27;13.67;;;;;;;14.33;38.15;95275.66;5095438;28;21155;-81
2021/03/04 10:46:43;;;;;;;23.17;11.60;;;;;;;14.38;38.28;95267.31;5095698;28;20444;-81
2021/03/04 10:49:10;;;;;;;35.63;12.53;;;;;;;14.45;38.32;95268.41;5095951;28;20503;-81
2021/03/04 10:51:36;;;;;;;18.20;12.17;;;;;;;14.54;38.26;95262.28;5095650;28;20912;-81
2021/03/04 10:54:04;;;;;;;22.93;12.93;;;;;;;14.51;37.58;95254.66;5010891;28;20534;-81
2021/03/04 10:56:30;;;;;;;17.00;11.53;;;;;;;14.45;38.17;95253.41;5095844;28;20466;-82
2021/03/04 10:58:57;;;;;;;21.23;11.23;;;;;;;14.40;38.12;95247.69;5096017;28;20439;-81
2021/03/04 11:01:23;;;;;;;21.60;11.77;;;;;;;14.46;37.90;95247.19;5096654;28;20437;-81
2021/03/04 11:03:50;;;;;;;18.63;11.77;;;;;;;14.48;38.22;95236.47;5096701;28;20441;-81
2021/03/04 11:06:16;;;;;;;28.70;12.57;;;;;;;14.54;37.42;95236.72;5095752;28;20496;-81
2021/03/04 11:08:42;;;;;;;20.57;10.73;;;;;;;14.66;37.75;95223.31;5096046;28;20446;-81
2021/03/04 11:11:10;;;;;;;18.53;11.80;;;;;;;14.55;37.45;95222.53;5095871;28;20453;-81
2021/03/04 11:13:36;;;;;;;19.87;11.67;;;;;;;14.55;37.29;95229.63;5095352;28;20841;-81
2021/03/04 11:16:02;;;;;;;15.43;10.80;;;;;;;14.54;37.42;95220.03;5094780;28;20450;-81
2021/03/04 11:18:29;;;;;;;21.33;10.97;;;;;;;14.67;37.53;95203.84;5095324;28;20844;-81
2021/03/04 11:20:55;;;;;;;19.70;11.17;;;;;;;14.80;37.50;95209.63;5095166;28;20855;-81
2021/03/04 11:23:21;;;;;;;19.27;11.13;;;;;;;14.96;36.62;95196.56;5095254;28;20440;-81
2021/03/04 11:25:48;;;;;;;21.13;10.77;;;;;;;15.06;37.03;95189.44;5095084;28;20447;-81
2021/03/04 11:28:15;;;;;;;24.53;12.07;;;;;;;15.13;36.45;95185.19;5094995;28;20439;-81